Great Barrington, MA

5:26 PM EDT on September 03, 2015 (GMT -0400)
GB Anderson St | | Change Station
CLOSE
Current Station
Personal Weather Station
Location: Great Barrington, MA
Elevation: 715 ft
Nearby Weather Stations

Elev 715 ft 42.20 °N, 73.35 °W | Updated 41 seconds ago

Partly Cloudy
Partly Cloudy
86.2 °F
Feels Like 92 °F
N
3.0
Wind Variable Wind from NW
Gusts 3.0 mph

Today
High -- | Low -- °F
--% Chance of Precip.
Yesterday
High -- | Low -- °F
Precip. -- in
6:20 AM 7:24 PM
Waning Gibbous, 67% visible
Pressure 29.82 in
Visibility 10.0 miles
Clouds Scattered Clouds 4500 ft
Mostly Cloudy 5500 ft
Heat Index 92 °F
Dew Point 71 °F
Humidity 61%
Rainfall 0.00 in
Snow Depth Not available.
UV 1 out of 12
Pollen 8.30 out of 12
Air Quality Not available.
Flu Activity Not available.
METAR KPSF 032054Z AUTO 33004KT 10SM SCT045 BKN055 27/19 A2989 RMK AO2 LTG DSNT NE AND E AND W SLP096 T02670189 56003
Pressure 29.82 in
Visibility 10.0 miles
Clouds Scattered Clouds 4500 ft
Mostly Cloudy 5500 ft
Heat Index 92 °F
Dew Point 71 °F
Humidity 61%
Rainfall 0.00 in
Snow Depth Not available.
UV 1 out of 12
Pollen 8.30 out of 12
Air Quality Not available.
Flu Activity Not available.
METAR KPSF 032054Z AUTO 33004KT 10SM SCT045 BKN055 27/19 A2989 RMK AO2 LTG DSNT NE AND E AND W SLP096 T02670189 56003

10-Day Weather Forecast

×

Almanac

Astronomy

Sep. 03, 2015 Rise Set
Actual Time
Civil Twilight
Nautical Twilight
Astronomical Twilight
Moon
Length of Visible Light
Length of Day
Tomorrow will be .
, % of the Moon is Illuminated

Today's Extremes

State Highs State Lows

Community

WunderPhotos

Upload Photos

1,852,038 photos uploaded!

WunderBlogs® & News

Nearby

Air Quality

  Air Quality AQ Index Pollutant
Not available.

Snow Depth

Station Depth Elevation

Earthquake Activity

City Distance Mag. Time & Date
Minimum magnitude displayed is 2.5.

Coastal Water Temperatures

Place Temperature

Stations

Nearby Weather Stations

Station Location Temp. Windchill Dew Point Humidity Wind Precip. Elev Updated Type